sensor_id;sensor_type;location;lat;lon;timestamp;pressure;altitude;pressure_sealevel;temperature;humidity
40992;BME280;29633;49.168;9.848;2023-07-31T00:01:46;96883.72;;;21.41;62.93
40992;BME280;29633;49.168;9.848;2023-07-31T00:04:12;96880.06;;;21.42;62.81
40992;BME280;29633;49.168;9.848;2023-07-31T00:06:37;96876.00;;;21.39;62.88
40992;BME280;29633;49.168;9.848;2023-07-31T00:09:03;96877.63;;;21.40;62.80
40992;BME280;29633;49.168;9.848;2023-07-31T00:11:28;96873.34;;;21.39;63.20
40992;BME280;29633;49.168;9.848;2023-07-31T00:13:54;96875.38;;;21.37;63.03
40992;BME280;29633;49.168;9.848;2023-07-31T00:16:20;96870.44;;;21.34;63.19
40992;BME280;29633;49.168;9.848;2023-07-31T00:18:45;96877.75;;;21.32;62.92
40992;BME280;29633;49.168;9.848;2023-07-31T00:21:11;96868.84;;;21.33;62.79
40992;BME280;29633;49.168;9.848;2023-07-31T00:23:37;96878.34;;;21.34;63.07
40992;BME280;29633;49.168;9.848;2023-07-31T00:26:02;96868.00;;;21.33;63.09
40992;BME280;29633;49.168;9.848;2023-07-31T00:28:28;96876.91;;;21.32;62.98
40992;BME280;29633;49.168;9.848;2023-07-31T00:30:54;96875.09;;;21.32;63.09
40992;BME280;29633;49.168;9.848;2023-07-31T00:33:20;96871.47;;;21.33;63.23
40992;BME280;29633;49.168;9.848;2023-07-31T00:35:45;96879.38;;;21.33;62.90
40992;BME280;29633;49.168;9.848;2023-07-31T00:38:11;96872.28;;;21.34;63.05
40992;BME280;29633;49.168;9.848;2023-07-31T00:40:37;96876.19;;;21.38;63.25
40992;BME280;29633;49.168;9.848;2023-07-31T00:43:03;96872.53;;;21.39;63.20
40992;BME280;29633;49.168;9.848;2023-07-31T00:45:29;96877.81;;;21.39;62.96
40992;BME280;29633;49.168;9.848;2023-07-31T00:47:55;96874.34;;;21.38;63.35
40992;BME280;29633;49.168;9.848;2023-07-31T00:50:23;96869.84;;;21.32;63.24
40992;BME280;29633;49.168;9.848;2023-07-31T00:52:49;96875.50;;;21.29;63.40
40992;BME280;29633;49.168;9.848;2023-07-31T00:55:15;96883.78;;;21.26;63.31
40992;BME280;29633;49.168;9.848;2023-07-31T00:57:41;96873.03;;;21.28;63.35
40992;BME280;29633;49.168;9.848;2023-07-31T01:00:07;96876.88;;;21.25;63.46
40992;BME280;29633;49.168;9.848;2023-07-31T01:02:33;96871.75;;;21.24;63.02
40992;BME280;29633;49.168;9.848;2023-07-31T01:05:00;96868.69;;;21.20;63.00
40992;BME280;29633;49.168;9.848;2023-07-31T01:07:48;96856.69;;;21.18;63.24
40992;BME280;29633;49.168;9.848;2023-07-31T01:10:26;96864.16;;;21.14;63.35
40992;BME280;29633;49.168;9.848;2023-07-31T01:12:56;96853.19;;;21.10;63.44
40992;BME280;29633;49.168;9.848;2023-07-31T01:15:23;96850.38;;;21.12;63.43
40992;BME280;29633;49.168;9.848;2023-07-31T01:17:48;96855.44;;;21.14;63.10
40992;BME280;29633;49.168;9.848;2023-07-31T01:20:22;96851.16;;;21.13;63.05
40992;BME280;29633;49.168;9.848;2023-07-31T01:23:26;96855.44;;;21.14;63.41
40992;BME280;29633;49.168;9.848;2023-07-31T01:26:38;96853.78;;;21.13;63.49
40992;BME280;29633;49.168;9.848;2023-07-31T01:29:17;96853.00;;;21.12;63.40
40992;BME280;29633;49.168;9.848;2023-07-31T01:31:47;96841.78;;;21.10;63.32
40992;BME280;29633;49.168;9.848;2023-07-31T01:34:13;96835.69;;;21.09;63.31
40992;BME280;29633;49.168;9.848;2023-07-31T01:36:41;96831.63;;;21.07;63.47
40992;BME280;29633;49.168;9.848;2023-07-31T01:39:06;96829.97;;;21.06;63.58
40992;BME280;29633;49.168;9.848;2023-07-31T01:41:32;96820.44;;;21.05;63.13
40992;BME280;29633;49.168;9.848;2023-07-31T01:43:58;96826.72;;;21.04;63.59
40992;BME280;29633;49.168;9.848;2023-07-31T01:46:23;96830.34;;;21.03;63.49
40992;BME280;29633;49.168;9.848;2023-07-31T01:48:49;96828.72;;;21.02;63.18
40992;BME280;29633;49.168;9.848;2023-07-31T01:51:14;96822.66;;;21.01;63.11
40992;BME280;29633;49.168;9.848;2023-07-31T01:53:40;96820.38;;;20.98;63.58
40992;BME280;29633;49.168;9.848;2023-07-31T01:56:06;96817.72;;;20.98;63.34
40992;BME280;29633;49.168;9.848;2023-07-31T01:58:31;96807.38;;;20.97;63.27
40992;BME280;29633;49.168;9.848;2023-07-31T02:00:57;96813.47;;;20.97;63.47
40992;BME280;29633;49.168;9.848;2023-07-31T02:03:22;96813.66;;;20.96;63.58
40992;BME280;29633;49.168;9.848;2023-07-31T02:05:48;96812.00;;;20.95;63.50
40992;BME280;29633;49.168;9.848;2023-07-31T02:08:15;96814.03;;;20.93;63.48
40992;BME280;29633;49.168;9.848;2023-07-31T02:10:41;96814.84;;;20.93;63.47
40992;BME280;29633;49.168;9.848;2023-07-31T02:13:06;96815.84;;;20.92;63.60
40992;BME280;29633;49.168;9.848;2023-07-31T02:15:33;96808.31;;;20.89;63.28
40992;BME280;29633;49.168;9.848;2023-07-31T02:17:59;96808.94;;;20.91;63.05
40992;BME280;29633;49.168;9.848;2023-07-31T02:20:24;96805.47;;;20.91;63.17
40992;BME280;29633;49.168;9.848;2023-07-31T02:22:50;96806.69;;;20.88;63.41
40992;BME280;29633;49.168;9.848;2023-07-31T02:25:15;96804.03;;;20.88;63.18
40992;BME280;29633;49.168;9.848;2023-07-31T02:27:41;96799.59;;;20.89;63.10
40992;BME280;29633;49.168;9.848;2023-07-31T02:30:07;96798.97;;;20.87;63.36
40992;BME280;29633;49.168;9.848;2023-07-31T02:32:33;96805.25;;;20.86;63.30
40992;BME280;29633;49.168;9.848;2023-07-31T02:34:58;96803.34;;;20.80;63.41
40992;BME280;29633;49.168;9.848;2023-07-31T02:37:25;96793.81;;;20.79;63.39
40992;BME280;29633;49.168;9.848;2023-07-31T02:39:50;96794.44;;;20.81;63.50
40992;BME280;29633;49.168;9.848;2023-07-31T02:42:16;96790.81;;;20.82;63.71
40992;BME280;29633;49.168;9.848;2023-07-31T02:44:42;96789.00;;;20.82;63.35
40992;BME280;29633;49.168;9.848;2023-07-31T02:47:07;96789.81;;;20.83;63.38
40992;BME280;29633;49.168;9.848;2023-07-31T02:49:33;96787.16;;;20.83;63.61
40992;BME280;29633;49.168;9.848;2023-07-31T02:51:59;96775.81;;;20.82;63.21
40992;BME280;29633;49.168;9.848;2023-07-31T02:54:24;96782.91;;;20.82;63.65
40992;BME280;29633;49.168;9.848;2023-07-31T02:56:50;96786.91;;;20.78;63.67
40992;BME280;29633;49.168;9.848;2023-07-31T02:59:16;96784.66;;;20.75;63.76
40992;BME280;29633;49.168;9.848;2023-07-31T03:01:42;96781.38;;;20.73;63.39
40992;BME280;29633;49.168;9.848;2023-07-31T03:04:08;96779.94;;;20.70;63.79
40992;BME280;29633;49.168;9.848;2023-07-31T03:06:33;96774.03;;;20.68;63.59
40992;BME280;29633;49.168;9.848;2023-07-31T03:08:59;96772.56;;;20.66;63.78
40992;BME280;29633;49.168;9.848;2023-07-31T03:11:25;96767.06;;;20.60;63.71
40992;BME280;29633;49.168;9.848;2023-07-31T03:13:50;96773.69;;;20.56;63.91
40992;BME280;29633;49.168;9.848;2023-07-31T03:16:16;96777.53;;;20.54;63.72
40992;BME280;29633;49.168;9.848;2023-07-31T03:18:41;96773.63;;;20.50;63.96
40992;BME280;29633;49.168;9.848;2023-07-31T03:21:07;96764.91;;;20.49;63.68
40992;BME280;29633;49.168;9.848;2023-07-31T03:23:33;96768.91;;;20.45;63.96
40992;BME280;29633;49.168;9.848;2023-07-31T03:26:00;96768.91;;;20.45;63.67
40992;BME280;29633;49.168;9.848;2023-07-31T03:28:26;96766.66;;;20.42;63.84
40992;BME280;29633;49.168;9.848;2023-07-31T03:30:52;96768.47;;;20.42;63.93
40992;BME280;29633;49.168;9.848;2023-07-31T03:33:18;96770.28;;;20.41;64.01
40992;BME280;29633;49.168;9.848;2023-07-31T03:35:44;96770.66;;;20.38;63.85
40992;BME280;29633;49.168;9.848;2023-07-31T03:38:10;96774.09;;;20.39;64.14
40992;BME280;29633;49.168;9.848;2023-07-31T03:40:35;96777.94;;;20.36;63.89
40992;BME280;29633;49.168;9.848;2023-07-31T03:43:01;96770.03;;;20.36;64.17
40992;BME280;29633;49.168;9.848;2023-07-31T03:45:26;96775.28;;;20.36;64.25
40992;BME280;29633;49.168;9.848;2023-07-31T03:47:52;96784.19;;;20.35;64.05
40992;BME280;29633;49.168;9.848;2023-07-31T03:50:19;96782.53;;;20.34;63.97
40992;BME280;29633;49.168;9.848;2023-07-31T03:52:44;96776.66;;;20.32;64.12
40992;BME280;29633;49.168;9.848;2023-07-31T03:55:10;96773.00;;;20.33;64.26
40992;BME280;29633;49.168;9.848;2023-07-31T03:57:36;96776.44;;;20.34;63.98
40992;BME280;29633;49.168;9.848;2023-07-31T04:00:01;96776.44;;;20.34;64.27
40992;BME280;29633;49.168;9.848;2023-07-31T04:02:27;96770.56;;;20.32;64.39
40992;BME280;29633;49.168;9.848;2023-07-31T04:04:53;96782.09;;;20.31;64.19
40992;BME280;29633;49.168;9.848;2023-07-31T04:07:18;96782.28;;;20.29;64.37
40992;BME280;29633;49.168;9.848;2023-07-31T04:09:44;96786.06;;;20.27;64.13
40992;BME280;29633;49.168;9.848;2023-07-31T04:12:09;96777.53;;;20.25;64.50
40992;BME280;29633;49.168;9.848;2023-07-31T04:14:35;96775.06;;;20.23;64.24
40992;BME280;29633;49.168;9.848;2023-07-31T04:17:01;96773.44;;;20.22;64.43
40992;BME280;29633;49.168;9.848;2023-07-31T04:19:26;96773.91;;;20.26;64.48
40992;BME280;29633;49.168;9.848;2023-07-31T04:21:52;96768.81;;;20.24;64.29
40992;BME280;29633;49.168;9.848;2023-07-31T04:24:17;96766.66;;;20.28;64.25
40992;BME280;29633;49.168;9.848;2023-07-31T04:26:53;96769.75;;;20.31;64.13
40992;BME280;29633;49.168;9.848;2023-07-31T04:29:19;96774.66;;;20.34;64.00
40992;BME280;29633;49.168;9.848;2023-07-31T04:31:45;96767.03;;;20.39;64.26
40992;BME280;29633;49.168;9.848;2023-07-31T04:34:10;96764.00;;;20.42;64.28
40992;BME280;29633;49.168;9.848;2023-07-31T04:36:37;96769.91;;;20.44;64.26
40992;BME280;29633;49.168;9.848;2023-07-31T04:39:03;96764.63;;;20.44;64.34
40992;BME280;29633;49.168;9.848;2023-07-31T04:41:28;96757.09;;;20.41;64.29
40992;BME280;29633;49.168;9.848;2023-07-31T04:43:54;96761.38;;;20.42;64.35
40992;BME280;29633;49.168;9.848;2023-07-31T04:46:19;96767.25;;;20.44;64.35
40992;BME280;29633;49.168;9.848;2023-07-31T04:48:45;96763.19;;;20.42;64.29
40992;BME280;29633;49.168;9.848;2023-07-31T04:51:11;96764.00;;;20.42;64.42
40992;BME280;29633;49.168;9.848;2023-07-31T04:53:36;96770.91;;;20.43;64.43
40992;BME280;29633;49.168;9.848;2023-07-31T04:56:02;96772.91;;;20.41;64.40
40992;BME280;29633;49.168;9.848;2023-07-31T04:58:28;96767.84;;;20.40;64.23
40992;BME280;29633;49.168;9.848;2023-07-31T05:00:53;96763.19;;;20.42;64.45
40992;BME280;29633;49.168;9.848;2023-07-31T05:03:19;96769.72;;;20.46;64.29
40992;BME280;29633;49.168;9.848;2023-07-31T05:05:45;96754.09;;;20.44;64.39
40992;BME280;29633;49.168;9.848;2023-07-31T05:08:10;96766.44;;;20.44;64.47
40992;BME280;29633;49.168;9.848;2023-07-31T05:10:36;96756.94;;;20.43;64.53
40992;BME280;29633;49.168;9.848;2023-07-31T05:13:02;96756.72;;;20.44;64.45
40992;BME280;29633;49.168;9.848;2023-07-31T05:15:28;96757.56;;;20.45;64.48
40992;BME280;29633;49.168;9.848;2023-07-31T05:17:56;96760.63;;;20.48;64.20
40992;BME280;29633;49.168;9.848;2023-07-31T05:20:21;96763.91;;;20.50;64.55
40992;BME280;29633;49.168;9.848;2023-07-31T05:22:47;96761.28;;;20.50;64.47
40992;BME280;29633;49.168;9.848;2023-07-31T05:25:13;96750.38;;;20.53;64.35
40992;BME280;29633;49.168;9.848;2023-07-31T05:27:38;96748.34;;;20.55;64.38
40992;BME280;29633;49.168;9.848;2023-07-31T05:30:04;96748.78;;;20.59;64.42
40992;BME280;29633;49.168;9.848;2023-07-31T05:32:30;96752.06;;;20.61;64.12
40992;BME280;29633;49.168;9.848;2023-07-31T05:34:56;96752.91;;;20.61;64.11
40992;BME280;29633;49.168;9.848;2023-07-31T05:37:22;96743.97;;;20.62;64.27
40992;BME280;29633;49.168;9.848;2023-07-31T05:39:47;96748.63;;;20.60;64.11
40992;BME280;29633;49.168;9.848;2023-07-31T05:42:13;96746.16;;;20.59;64.42
40992;BME280;29633;49.168;9.848;2023-07-31T05:44:39;96740.28;;;20.57;64.29
40992;BME280;29633;49.168;9.848;2023-07-31T05:47:04;96736.81;;;20.56;64.59
40992;BME280;29633;49.168;9.848;2023-07-31T05:49:30;96743.72;;;20.57;64.47
40992;BME280;29633;49.168;9.848;2023-07-31T05:51:56;96740.06;;;20.58;64.39
40992;BME280;29633;49.168;9.848;2023-07-31T05:54:21;96743.72;;;20.57;64.56
40992;BME280;29633;49.168;9.848;2023-07-31T05:56:49;96743.72;;;20.57;64.62
40992;BME280;29633;49.168;9.848;2023-07-31T05:59:16;96749.00;;;20.57;64.80
40992;BME280;29633;49.168;9.848;2023-07-31T06:01:42;96754.72;;;20.61;64.58
40992;BME280;29633;49.168;9.848;2023-07-31T06:04:07;96753.06;;;20.60;64.42
40992;BME280;29633;49.168;9.848;2023-07-31T06:06:33;96751.63;;;20.57;64.69
40992;BME280;29633;49.168;9.848;2023-07-31T06:08:59;96754.25;;;20.57;64.67
40992;BME280;29633;49.168;9.848;2023-07-31T06:11:25;96746.81;;;20.61;64.49
40992;BME280;29633;49.168;9.848;2023-07-31T06:13:51;96749.44;;;20.61;64.46
40992;BME280;29633;49.168;9.848;2023-07-31T06:16:16;96751.50;;;20.66;64.85
40992;BME280;29633;49.168;9.848;2023-07-31T06:18:42;96748.13;;;20.72;64.45
40992;BME280;29633;49.168;9.848;2023-07-31T06:21:09;96749.41;;;20.76;64.50
40992;BME280;29633;49.168;9.848;2023-07-31T06:23:35;96744.38;;;20.81;64.28
40992;BME280;29633;49.168;9.848;2023-07-31T06:26:01;96748.25;;;20.85;64.77
40992;BME280;29633;49.168;9.848;2023-07-31T06:28:30;96747.31;;;20.92;64.60
40992;BME280;29633;49.168;9.848;2023-07-31T06:30:59;96749.41;;;20.97;64.76
40992;BME280;29633;49.168;9.848;2023-07-31T06:33:25;96750.66;;;21.01;64.41
40992;BME280;29633;49.168;9.848;2023-07-31T06:35:50;96746.00;;;21.03;64.64
40992;BME280;29633;49.168;9.848;2023-07-31T06:38:21;96746.66;;;21.05;64.62
40992;BME280;29633;49.168;9.848;2023-07-31T06:40:47;96755.63;;;21.10;64.54
40992;BME280;29633;49.168;9.848;2023-07-31T06:43:12;96758.34;;;21.17;64.58
40992;BME280;29633;49.168;9.848;2023-07-31T06:45:38;96754.69;;;21.18;64.41
40992;BME280;29633;49.168;9.848;2023-07-31T06:48:04;96755.94;;;21.22;64.50
40992;BME280;29633;49.168;9.848;2023-07-31T06:50:30;96748.47;;;21.26;64.43
40992;BME280;29633;49.168;9.848;2023-07-31T06:52:56;96754.63;;;21.33;64.37
40992;BME280;29633;49.168;9.848;2023-07-31T06:55:22;96756.31;;;21.40;63.97
40992;BME280;29633;49.168;9.848;2023-07-31T06:57:49;96752.28;;;21.44;64.15
40992;BME280;29633;49.168;9.848;2023-07-31T07:00:15;96749.66;;;21.44;64.38
40992;BME280;29633;49.168;9.848;2023-07-31T07:02:42;96746.81;;;21.46;64.42
40992;BME280;29633;49.168;9.848;2023-07-31T07:05:08;96746.41;;;21.49;64.48
40992;BME280;29633;49.168;9.848;2023-07-31T07:07:34;96749.13;;;21.55;64.05
40992;BME280;29633;49.168;9.848;2023-07-31T07:10:03;96738.63;;;21.62;64.46
40992;BME280;29633;49.168;9.848;2023-07-31T07:12:32;96731.94;;;21.66;64.16
40992;BME280;29633;49.168;9.848;2023-07-31T07:14:59;96733.81;;;21.72;64.18
40992;BME280;29633;49.168;9.848;2023-07-31T07:17:25;96720.22;;;21.75;64.40
40992;BME280;29633;49.168;9.848;2023-07-31T07:19:51;96728.38;;;21.80;64.13
40992;BME280;29633;49.168;9.848;2023-07-31T07:22:17;96725.97;;;21.85;64.24
40992;BME280;29633;49.168;9.848;2023-07-31T07:24:43;96721.09;;;21.89;64.26
40992;BME280;29633;49.168;9.848;2023-07-31T07:27:08;96725.03;;;21.93;64.16
40992;BME280;29633;49.168;9.848;2023-07-31T07:29:35;96723.00;;;21.95;64.27
40992;BME280;29633;49.168;9.848;2023-07-31T07:32:01;96714.69;;;21.98;64.30
40992;BME280;29633;49.168;9.848;2023-07-31T07:34:27;96719.56;;;21.94;64.36
40992;BME280;29633;49.168;9.848;2023-07-31T07:36:53;96716.69;;;21.96;64.40
40992;BME280;29633;49.168;9.848;2023-07-31T07:39:19;96717.53;;;21.96;64.43
40992;BME280;29633;49.168;9.848;2023-07-31T07:41:46;96711.84;;;21.99;64.18
40992;BME280;29633;49.168;9.848;2023-07-31T07:44:12;96713.31;;;22.02;64.61
40992;BME280;29633;49.168;9.848;2023-07-31T07:46:38;96725.09;;;22.06;64.30
40992;BME280;29633;49.168;9.848;2023-07-31T07:49:04;96728.59;;;22.13;64.15
40992;BME280;29633;49.168;9.848;2023-07-31T07:51:29;96729.44;;;22.20;64.47
40992;BME280;29633;49.168;9.848;2023-07-31T07:53:57;96704.88;;;22.26;64.44
40992;BME280;29633;49.168;9.848;2023-07-31T07:56:25;96704.69;;;22.34;64.37
40992;BME280;29633;49.168;9.848;2023-07-31T07:58:50;96703.72;;;22.42;64.06
40992;BME280;29633;49.168;9.848;2023-07-31T08:01:16;96704.13;;;22.45;64.27
40992;BME280;29633;49.168;9.848;2023-07-31T08:03:42;96701.09;;;22.48;63.94
40992;BME280;29633;49.168;9.848;2023-07-31T08:06:08;96709.81;;;22.49;64.19
40992;BME280;29633;49.168;9.848;2023-07-31T08:08:37;96713.06;;;22.51;64.32
40992;BME280;29633;49.168;9.848;2023-07-31T08:11:03;96712.28;;;22.57;64.19
40992;BME280;29633;49.168;9.848;2023-07-31T08:13:28;96701.97;;;22.69;64.13
40992;BME280;29633;49.168;9.848;2023-07-31T08:15:54;96706.66;;;22.80;64.13
40992;BME280;29633;49.168;9.848;2023-07-31T08:18:20;96704.25;;;22.91;64.11
40992;BME280;29633;49.168;9.848;2023-07-31T08:20:46;96698.97;;;22.98;64.05
40992;BME280;29633;49.168;9.848;2023-07-31T08:23:12;96695.91;;;23.01;64.18
40992;BME280;29633;49.168;9.848;2023-07-31T08:25:38;96695.91;;;23.01;63.97
40992;BME280;29633;49.168;9.848;2023-07-31T08:28:04;96693.25;;;23.01;64.18
40992;BME280;29633;49.168;9.848;2023-07-31T08:30:30;96678.22;;;23.08;64.21
40992;BME280;29633;49.168;9.848;2023-07-31T08:32:56;96684.53;;;23.20;63.98
40992;BME280;29633;49.168;9.848;2023-07-31T08:35:23;96679.63;;;23.30;64.02
40992;BME280;29633;49.168;9.848;2023-07-31T08:37:49;96671.09;;;23.41;63.91
40992;BME280;29633;49.168;9.848;2023-07-31T08:40:15;96670.88;;;23.56;63.92
40992;BME280;29633;49.168;9.848;2023-07-31T08:42:49;96672.69;;;23.69;63.66
40992;BME280;29633;49.168;9.848;2023-07-31T08:45:17;96666.53;;;23.81;63.57
40992;BME280;29633;49.168;9.848;2023-07-31T08:47:50;96661.41;;;23.93;63.76
40992;BME280;29633;49.168;9.848;2023-07-31T08:50:18;96678.88;;;24.07;63.77
40992;BME280;29633;49.168;9.848;2023-07-31T08:52:46;96681.09;;;24.17;63.46
40992;BME280;29633;49.168;9.848;2023-07-31T08:55:11;96665.22;;;24.23;63.49
40992;BME280;29633;49.168;9.848;2023-07-31T08:57:38;96676.97;;;24.34;63.39
40992;BME280;29633;49.168;9.848;2023-07-31T09:00:05;96672.22;;;24.42;63.55
40992;BME280;29633;49.168;9.848;2023-07-31T09:02:37;96666.69;;;24.50;63.59
40992;BME280;29633;49.168;9.848;2023-07-31T09:05:06;96659.13;;;24.54;63.39
40992;BME280;29633;49.168;9.848;2023-07-31T09:07:36;96656.84;;;24.58;63.45
40992;BME280;29633;49.168;9.848;2023-07-31T09:10:02;96658.09;;;24.55;63.33
40992;BME280;29633;49.168;9.848;2023-07-31T09:12:28;96662.78;;;24.60;63.27
40992;BME280;29633;49.168;9.848;2023-07-31T09:14:54;96659.84;;;24.68;63.05
40992;BME280;29633;49.168;9.848;2023-07-31T09:17:30;96657.75;;;24.76;63.11
40992;BME280;29633;49.168;9.848;2023-07-31T09:19:56;96662.41;;;24.81;63.21
40992;BME280;29633;49.168;9.848;2023-07-31T09:22:34;96659.94;;;24.86;62.92
40992;BME280;29633;49.168;9.848;2023-07-31T09:25:16;96660.31;;;24.89;62.96
40992;BME280;29633;49.168;9.848;2023-07-31T09:28:07;96652.13;;;24.97;62.95
40992;BME280;29633;49.168;9.848;2023-07-31T09:30:45;96646.97;;;25.03;63.02
40992;BME280;29633;49.168;9.848;2023-07-31T09:33:11;96647.94;;;25.08;63.04
40992;BME280;29633;49.168;9.848;2023-07-31T09:35:37;96647.50;;;25.11;62.90
40992;BME280;29633;49.168;9.848;2023-07-31T09:38:07;96645.47;;;25.13;62.94
40992;BME280;29633;49.168;9.848;2023-07-31T09:40:35;96639.47;;;25.18;62.60
40992;BME280;29633;49.168;9.848;2023-07-31T09:43:18;96635.16;;;25.23;62.64
40992;BME280;29633;49.168;9.848;2023-07-31T09:45:45;96620.25;;;25.22;62.78
40992;BME280;29633;49.168;9.848;2023-07-31T09:48:12;96633.16;;;25.19;62.61
40992;BME280;29633;49.168;9.848;2023-07-31T09:50:39;96631.75;;;25.16;62.69
40992;BME280;29633;49.168;9.848;2023-07-31T09:53:06;96624.63;;;25.17;62.78
40992;BME280;29633;49.168;9.848;2023-07-31T09:55:32;96639.09;;;25.14;62.59
40992;BME280;29633;49.168;9.848;2023-07-31T09:57:57;96640.53;;;25.17;62.74
40992;BME280;29633;49.168;9.848;2023-07-31T10:00:24;96622.91;;;25.22;62.66
40992;BME280;29633;49.168;9.848;2023-07-31T10:02:52;96629.41;;;25.26;62.50
40992;BME280;29633;49.168;9.848;2023-07-31T10:05:19;96619.41;;;25.28;62.26
40992;BME280;29633;49.168;9.848;2023-07-31T10:07:54;96616.31;;;25.31;62.25
40992;BME280;29633;49.168;9.848;2023-07-31T10:10:21;96616.75;;;25.28;62.29
40992;BME280;29633;49.168;9.848;2023-07-31T10:12:51;96602.69;;;25.28;61.86
40992;BME280;29633;49.168;9.848;2023-07-31T10:15:19;96604.06;;;25.30;61.89
40992;BME280;29633;49.168;9.848;2023-07-31T10:17:47;96607.47;;;25.37;62.02
40992;BME280;29633;49.168;9.848;2023-07-31T10:20:14;96611.88;;;25.43;61.80
40992;BME280;29633;49.168;9.848;2023-07-31T10:22:42;96614.53;;;25.43;62.04
40992;BME280;29633;49.168;9.848;2023-07-31T10:25:08;96620.91;;;25.42;61.84
40992;BME280;29633;49.168;9.848;2023-07-31T10:27:35;96615.22;;;25.39;62.11
40992;BME280;29633;49.168;9.848;2023-07-31T10:30:01;96608.03;;;25.39;61.98
40992;BME280;29633;49.168;9.848;2023-07-31T10:32:29;96599.50;;;25.37;61.92
40992;BME280;29633;49.168;9.848;2023-07-31T10:34:55;96606.66;;;25.37;62.07
40992;BME280;29633;49.168;9.848;2023-07-31T10:37:29;96606.00;;;25.41;61.89
40992;BME280;29633;49.168;9.848;2023-07-31T10:40:03;96597.44;;;25.39;61.83
40992;BME280;29633;49.168;9.848;2023-07-31T10:44:59;96592.13;;;25.39;61.92
40992;BME280;29633;49.168;9.848;2023-07-31T10:47:26;96599.88;;;25.41;61.58
40992;BME280;29633;49.168;9.848;2023-07-31T10:49:51;96586.41;;;25.42;61.61
40992;BME280;29633;49.168;9.848;2023-07-31T10:52:20;96575.47;;;25.51;61.55
40992;BME280;29633;49.168;9.848;2023-07-31T10:54:49;96574.38;;;25.58;61.33
40992;BME280;29633;49.168;9.848;2023-07-31T10:57:19;96578.09;;;25.57;61.36
40992;BME280;29633;49.168;9.848;2023-07-31T10:59:46;96577.28;;;25.57;61.50
40992;BME280;29633;49.168;9.848;2023-07-31T11:02:24;96580.16;;;25.55;61.52
40992;BME280;29633;49.168;9.848;2023-07-31T11:05:10;96570.34;;;25.56;61.58
40992;BME280;29633;49.168;9.848;2023-07-31T11:07:55;96570.72;;;25.59;61.56
40992;BME280;29633;49.168;9.848;2023-07-31T11:10:21;96573.16;;;25.61;61.48
40992;BME280;29633;49.168;9.848;2023-07-31T11:12:48;96573.53;;;25.64;61.28
40992;BME280;29633;49.168;9.848;2023-07-31T11:15:14;96573.44;;;25.71;61.38
40992;BME280;29633;49.168;9.848;2023-07-31T11:17:39;96577.19;;;25.81;61.34
40992;BME280;29633;49.168;9.848;2023-07-31T11:20:06;96583.06;;;25.83;61.44
40992;BME280;29633;49.168;9.848;2023-07-31T11:22:34;96584.34;;;25.81;61.16
40992;BME280;29633;49.168;9.848;2023-07-31T11:25:02;96579.03;;;25.81;61.36
40992;BME280;29633;49.168;9.848;2023-07-31T11:27:28;96575.91;;;25.84;61.28
40992;BME280;29633;49.168;9.848;2023-07-31T11:30:00;96578.38;;;25.85;60.99
40992;BME280;29633;49.168;9.848;2023-07-31T11:32:26;96575.34;;;25.82;61.08
40992;BME280;29633;49.168;9.848;2023-07-31T11:34:53;96581.47;;;25.82;61.21
40992;BME280;29633;49.168;9.848;2023-07-31T11:37:18;96579.59;;;25.83;61.17
40992;BME280;29633;49.168;9.848;2023-07-31T11:39:58;96584.91;;;25.83;60.98
40992;BME280;29633;49.168;9.848;2023-07-31T11:42:24;96579.59;;;25.83;61.08
40992;BME280;29633;49.168;9.848;2023-07-31T11:44:49;96573.06;;;25.85;61.07
40992;BME280;29633;49.168;9.848;2023-07-31T11:47:15;96565.44;;;25.89;61.00
40992;BME280;29633;49.168;9.848;2023-07-31T11:49:42;96566.63;;;25.93;61.24
40992;BME280;29633;49.168;9.848;2023-07-31T11:52:08;96559.03;;;25.97;60.95
40992;BME280;29633;49.168;9.848;2023-07-31T11:54:34;96547.94;;;26.00;61.33
40992;BME280;29633;49.168;9.848;2023-07-31T11:57:00;96553.38;;;26.05;60.78
40992;BME280;29633;49.168;9.848;2023-07-31T11:59:26;96546.34;;;26.10;61.03
40992;BME280;29633;49.168;9.848;2023-07-31T12:01:52;96537.47;;;26.16;61.05
40992;BME280;29633;49.168;9.848;2023-07-31T12:04:19;96542.72;;;26.23;60.69
40992;BME280;29633;49.168;9.848;2023-07-31T12:06:47;96543.69;;;26.28;60.78
40992;BME280;29633;49.168;9.848;2023-07-31T12:09:14;96526.44;;;26.31;60.79
40992;BME280;29633;49.168;9.848;2023-07-31T12:11:47;96519.44;;;26.36;60.82
40992;BME280;29633;49.168;9.848;2023-07-31T12:14:28;96516.66;;;26.43;60.87
40992;BME280;29633;49.168;9.848;2023-07-31T12:16:55;96514.03;;;26.55;60.61
40992;BME280;29633;49.168;9.848;2023-07-31T12:19:24;96513.91;;;26.61;60.64
40992;BME280;29633;49.168;9.848;2023-07-31T12:21:53;96514.47;;;26.63;60.46
40992;BME280;29633;49.168;9.848;2023-07-31T12:24:19;96502.13;;;26.69;60.60
40992;BME280;29633;49.168;9.848;2023-07-31T12:26:50;96514.50;;;26.75;60.68
40992;BME280;29633;49.168;9.848;2023-07-31T12:29:18;96511.97;;;26.80;60.60
40992;BME280;29633;49.168;9.848;2023-07-31T12:31:43;96502.63;;;26.89;60.64
40992;BME280;29633;49.168;9.848;2023-07-31T12:34:19;96501.69;;;26.95;60.43
40992;BME280;29633;49.168;9.848;2023-07-31T12:36:48;96506.56;;;26.98;60.33
40992;BME280;29633;49.168;9.848;2023-07-31T12:39:14;96506.09;;;27.01;60.38
40992;BME280;29633;49.168;9.848;2023-07-31T12:41:40;96493.25;;;26.98;60.28
40992;BME280;29633;49.168;9.848;2023-07-31T12:44:06;96492.78;;;27.01;60.49
40992;BME280;29633;49.168;9.848;2023-07-31T12:46:31;96489.66;;;27.04;60.34
40992;BME280;29633;49.168;9.848;2023-07-31T12:48:57;96487.47;;;27.13;60.36
40992;BME280;29633;49.168;9.848;2023-07-31T12:51:23;96488.13;;;27.20;60.30
40992;BME280;29633;49.168;9.848;2023-07-31T12:53:48;96485.81;;;27.23;60.41
40992;BME280;29633;49.168;9.848;2023-07-31T12:56:14;96471.56;;;27.29;60.01
40992;BME280;29633;49.168;9.848;2023-07-31T12:58:39;96470.03;;;27.33;60.27
40992;BME280;29633;49.168;9.848;2023-07-31T13:01:05;96466.44;;;27.39;60.14
40992;BME280;29633;49.168;9.848;2023-07-31T13:03:34;96467.56;;;27.44;60.10